Time;durP1;ratioP1;P1;durP2;ratioP2;P2;SDS_P1;SDS_P2;PMS_P1;PMS_P2;Temp;Humidity;BMP_temperature;BMP_pressure;BME280_temperature;BME280_humidity;BME280_pressure;Samples;Min_cycle;Max_cycle;Signal;HPM_P1;HPM_P2
2022/03/14 00:01:32;;;;;;;;;;;;;;;14.82;45.74;99025.75;5025986;28;20024;-65
2022/03/14 00:03:58;;;;;;;;;;;;;;;15.07;46.36;99027.97;5027001;28;19961;-64
2022/03/14 00:06:24;;;;;;;;;;;;;;;15.07;46.55;99033.16;5026121;28;19932;-65
2022/03/14 00:08:50;;;;;;;;;;;;;;;15.02;46.19;99041.16;5027331;28;20283;-64
2022/03/14 00:11:16;;;;;;;;;;;;;;;14.90;46.94;99031.41;5026603;28;19921;-65
2022/03/14 00:13:46;;;;;;;;;;;;;;;15.07;46.67;99043.53;5027108;28;19925;-64
2022/03/14 00:16:23;;;;;;;;;;;;;;;15.06;47.68;99044.47;5027524;28;19971;-65
2022/03/14 00:18:50;;;;;;;;;;;;;;;15.14;46.80;99044.91;5028150;28;19928;-64
2022/03/14 00:21:16;;;;;;;;;;;;;;;14.91;48.00;99048.63;5026829;28;19924;-66
2022/03/14 00:23:42;;;;;;;;;;;;;;;14.97;48.75;99056.13;5027425;28;19914;-66
2022/03/14 00:26:07;;;;;;;;;;;;;;;14.77;47.90;99057.09;5026946;28;19979;-64
2022/03/14 00:28:32;;;;;;;;;;;;;;;14.83;52.75;99066.34;5026738;28;20411;-65
2022/03/14 00:30:58;;;;;;;;;;;;;;;14.33;49.83;99066.94;5025315;28;19918;-64
2022/03/14 00:33:23;;;;;;;;;;;;;;;13.76;52.68;99062.56;5027101;28;19925;-64
2022/03/14 00:35:49;;;;;;;;;;;;;;;13.91;54.56;99076.59;5026938;28;20004;-64
2022/03/14 00:38:15;;;;;;;;;;;;;;;13.54;52.25;99080.75;5026838;28;19924;-66
2022/03/14 00:40:40;;;;;;;;;;;;;;;13.89;51.05;99075.81;5027581;28;19925;-64
2022/03/14 00:43:07;;;;;;;;;;;;;;;13.00;47.96;99073.53;5027636;28;19968;-63
2022/03/14 00:45:34;;;;;;;;;;;;;;;12.61;58.15;99085.38;5027161;28;19925;-64
2022/03/14 00:48:00;;;;;;;;;;;;;;;13.91;53.35;99075.72;5025937;28;19921;-65
2022/03/14 00:50:25;;;;;;;;;;;;;;;14.50;50.74;99074.75;5025561;28;19920;-64
2022/03/14 00:52:50;;;;;;;;;;;;;;;14.73;49.60;99080.63;5009616;28;19932;-64
2022/03/14 00:55:16;;;;;;;;;;;;;;;14.17;54.80;99083.19;5027191;28;19926;-65
2022/03/14 00:57:41;;;;;;;;;;;;;;;14.57;52.08;99080.53;5026899;28;19916;-64
2022/03/14 01:00:07;;;;;;;;;;;;;;;14.38;54.48;99083.94;5026776;28;20282;-64
2022/03/14 01:02:32;;;;;;;;;;;;;;;14.25;54.43;99089.75;5024685;28;19979;-64
2022/03/14 01:04:57;;;;;;;;;;;;;;;14.22;53.97;99096.75;5026188;28;19928;-63
2022/03/14 01:07:23;;;;;;;;;;;;;;;13.51;54.91;99100.78;5025839;28;19963;-66
2022/03/14 01:09:48;;;;;;;;;;;;;;;14.31;54.34;99105.88;5025794;28;20028;-66
2022/03/14 01:12:13;;;;;;;;;;;;;;;13.92;55.27;99108.50;5026897;28;20020;-64
2022/03/14 01:14:39;;;;;;;;;;;;;;;14.36;53.11;99103.06;5026471;28;19932;-65
2022/03/14 01:17:04;;;;;;;;;;;;;;;14.59;53.79;99110.63;5025284;28;19970;-65
2022/03/14 01:19:29;;;;;;;;;;;;;;;14.60;54.14;99112.34;5025837;28;19921;-64
2022/03/14 01:21:55;;;;;;;;;;;;;;;14.59;54.26;99115.81;5024991;28;20286;-62
2022/03/14 01:24:20;;;;;;;;;;;;;;;14.70;54.50;99122.25;5026429;28;19924;-64
2022/03/14 01:26:45;;;;;;;;;;;;;;;14.67;56.47;99122.41;5024984;28;20007;-65
2022/03/14 01:29:10;;;;;;;;;;;;;;;14.68;58.19;99131.88;5025598;28;20310;-64
2022/03/14 01:31:36;;;;;;;;;;;;;;;14.63;60.15;99132.06;5025564;28;19917;-66
2022/03/14 01:34:01;;;;;;;;;;;;;;;14.53;61.75;99130.78;5005457;28;19988;-64
2022/03/14 01:36:27;;;;;;;;;;;;;;;14.22;64.66;99138.19;5024859;28;19921;-66
2022/03/14 01:38:52;;;;;;;;;;;;;;;14.09;67.62;99142.22;5025855;28;19925;-66
2022/03/14 01:41:18;;;;;;;;;;;;;;;14.16;68.29;99143.69;5025891;28;19986;-64
2022/03/14 01:43:44;;;;;;;;;;;;;;;14.46;68.81;99148.38;5008173;28;20019;-64
2022/03/14 01:46:10;;;;;;;;;;;;;;;14.49;69.08;99150.00;5025326;28;19955;-65
2022/03/14 01:48:35;;;;;;;;;;;;;;;14.26;70.32;99151.03;5025793;28;19921;-66
2022/03/14 01:51:01;;;;;;;;;;;;;;;13.05;66.68;99151.78;5025075;28;19928;-66
2022/03/14 01:53:26;;;;;;;;;;;;;;;12.89;68.66;99149.78;5025808;28;19929;-65
2022/03/14 01:55:52;;;;;;;;;;;;;;;13.99;72.17;99156.50;5024446;28;19922;-65
2022/03/14 01:58:18;;;;;;;;;;;;;;;14.07;77.07;99159.63;5024852;28;19970;-64
2022/03/14 02:00:43;;;;;;;;;;;;;;;14.22;79.67;99161.50;5024651;28;19921;-65
2022/03/14 02:03:09;;;;;;;;;;;;;;;14.34;81.72;99156.69;5023365;28;19917;-64
2022/03/14 02:05:36;;;;;;;;;;;;;;;13.29;85.55;99168.91;5025377;28;19928;-66
2022/03/14 02:08:02;;;;;;;;;;;;;;;13.88;91.93;99159.56;5025247;28;19924;-66
2022/03/14 02:10:27;;;;;;;;;;;;;;;13.79;91.08;99150.44;5025156;28;19990;-64
2022/03/14 02:12:52;;;;;;;;;;;;;;;13.65;90.35;99147.59;5023604;28;19929;-65
2022/03/14 02:15:19;;;;;;;;;;;;;;;13.49;93.21;99167.25;5024549;28;19921;-64
2022/03/14 02:17:45;;;;;;;;;;;;;;;12.33;100.00;99194.09;5024093;28;19998;-66
2022/03/14 02:20:10;;;;;;;;;;;;;;;12.61;98.17;99177.56;5023232;28;19964;-64
2022/03/14 02:22:35;;;;;;;;;;;;;;;13.17;99.68;99184.88;5021831;28;19929;-65
2022/03/14 02:25:01;;;;;;;;;;;;;;;13.33;98.85;99178.22;5018282;28;19945;-65
2022/03/14 02:27:26;;;;;;;;;;;;;;;13.36;99.68;99177.25;5019261;28;19940;-64
2022/03/14 02:29:51;;;;;;;;;;;;;;;13.60;98.10;99185.78;5019071;28;19925;-64
2022/03/14 02:32:17;;;;;;;;;;;;;;;13.24;96.81;99188.06;5021019;28;20020;-64
2022/03/14 02:34:43;;;;;;;;;;;;;;;13.39;97.14;99188.34;5022218;28;19984;-64
2022/03/14 02:37:08;;;;;;;;;;;;;;;13.59;96.64;99186.66;5026877;28;19956;-65
2022/03/14 02:39:34;;;;;;;;;;;;;;;13.81;95.90;99189.19;5028619;28;19925;-65
2022/03/14 02:42:03;;;;;;;;;;;;;;;13.69;96.12;99195.75;5027565;28;20401;-65
2022/03/14 02:44:28;;;;;;;;;;;;;;;12.84;98.62;99205.13;5022504;28;19917;-65
2022/03/14 02:46:53;;;;;;;;;;;;;;;13.59;97.38;99200.47;5023212;28;21001;-64
2022/03/14 02:49:19;;;;;;;;;;;;;;;13.38;93.36;99202.16;5022156;28;19928;-65
2022/03/14 02:51:46;;;;;;;;;;;;;;;12.82;94.87;99210.38;5024586;28;19965;-65
2022/03/14 02:54:11;;;;;;;;;;;;;;;13.39;95.13;99214.19;5022282;28;19921;-64
2022/03/14 02:56:37;;;;;;;;;;;;;;;13.34;95.41;99213.56;5025540;28;20232;-65
2022/03/14 02:59:03;;;;;;;;;;;;;;;13.08;95.62;99218.88;5027556;28;19921;-65
2022/03/14 03:01:28;;;;;;;;;;;;;;;13.26;96.60;99231.06;5027732;28;20003;-64
2022/03/14 03:03:53;;;;;;;;;;;;;;;12.09;100.00;99242.28;5028536;28;19998;-64
2022/03/14 03:06:23;;;;;;;;;;;;;;;12.19;100.00;99253.13;5029127;28;19948;-64
2022/03/14 03:08:52;;;;;;;;;;;;;;;12.58;100.00;99261.19;5029034;28;20434;-64
2022/03/14 03:11:18;;;;;;;;;;;;;;;12.07;100.00;99260.41;5027907;28;19917;-64
2022/03/14 03:13:47;;;;;;;;;;;;;;;12.68;97.84;99266.88;5030563;28;20413;-60
2022/03/14 03:16:16;;;;;;;;;;;;;;;12.30;98.28;99269.09;5027247;28;19920;-63
2022/03/14 03:18:44;;;;;;;;;;;;;;;13.08;98.70;99283.50;5027059;28;19948;-63
2022/03/14 03:21:10;;;;;;;;;;;;;;;12.66;98.60;99287.63;5018388;28;21019;-62
2022/03/14 03:23:35;;;;;;;;;;;;;;;11.59;100.00;99299.78;5026107;28;19920;-63
2022/03/14 03:26:06;;;;;;;;;;;;;;;11.98;100.00;99302.00;5026799;28;19921;-63
2022/03/14 03:28:37;;;;;;;;;;;;;;;12.03;100.00;99305.28;5029461;28;19921;-62
2022/03/14 03:31:03;;;;;;;;;;;;;;;11.98;100.00;99307.16;5024773;28;19921;-63
2022/03/14 03:33:28;;;;;;;;;;;;;;;11.70;100.00;99313.19;5026859;28;19932;-63
2022/03/14 03:35:53;;;;;;;;;;;;;;;12.43;100.00;99316.84;5009989;28;19925;-63
2022/03/14 03:38:19;;;;;;;;;;;;;;;11.86;100.00;99323.00;5010564;28;20016;-62
2022/03/14 03:40:44;;;;;;;;;;;;;;;11.88;100.00;99326.41;5027487;28;19920;-63
2022/03/14 03:43:09;;;;;;;;;;;;;;;11.91;100.00;99334.06;5028040;28;19943;-62
2022/03/14 03:45:35;;;;;;;;;;;;;;;11.70;100.00;99338.97;5027091;28;19931;-63
2022/03/14 03:48:00;;;;;;;;;;;;;;;10.84;100.00;99343.25;5027772;28;20108;-62
2022/03/14 03:50:25;;;;;;;;;;;;;;;11.47;100.00;99342.28;5027922;28;20401;-62
2022/03/14 03:52:51;;;;;;;;;;;;;;;10.97;100.00;99349.75;5026991;28;19922;-62
2022/03/14 03:55:16;;;;;;;;;;;;;;;11.31;100.00;99351.31;5027306;28;20032;-62
2022/03/14 03:57:41;;;;;;;;;;;;;;;11.19;100.00;99360.28;5027340;28;19925;-62
2022/03/14 04:00:09;;;;;;;;;;;;;;;11.05;100.00;99359.81;5026807;28;19927;-62
2022/03/14 04:02:38;;;;;;;;;;;;;;;10.50;100.00;99366.47;5026992;28;20425;-62
2022/03/14 04:05:04;;;;;;;;;;;;;;;10.74;100.00;99371.00;5026882;28;19932;-62
2022/03/14 04:07:30;;;;;;;;;;;;;;;10.29;100.00;99373.84;5026394;28;19921;-62
2022/03/14 04:09:56;;;;;;;;;;;;;;;11.05;100.00;99375.28;5027372;28;19952;-63
2022/03/14 04:12:26;;;;;;;;;;;;;;;10.45;100.00;99376.91;5011016;28;19928;-63
2022/03/14 04:14:51;;;;;;;;;;;;;;;9.87;100.00;99385.97;5027916;28;19921;-62
2022/03/14 04:17:17;;;;;;;;;;;;;;;10.20;100.00;99384.34;5026527;28;19931;-62
2022/03/14 04:19:43;;;;;;;;;;;;;;;10.25;100.00;99385.06;5027387;28;20934;-62
2022/03/14 04:22:09;;;;;;;;;;;;;;;10.46;100.00;99386.28;5026386;28;20000;-62
2022/03/14 04:24:36;;;;;;;;;;;;;;;10.17;100.00;99397.28;5027767;28;20290;-62
2022/03/14 04:27:01;;;;;;;;;;;;;;;10.19;100.00;99387.78;5027195;28;19917;-62
2022/03/14 04:29:28;;;;;;;;;;;;;;;10.42;100.00;99395.84;5027801;28;19932;-63
2022/03/14 04:31:53;;;;;;;;;;;;;;;10.38;100.00;99395.97;5027236;28;19917;-62
2022/03/14 04:34:19;;;;;;;;;;;;;;;10.80;100.00;99398.31;5025719;28;20371;-63
2022/03/14 04:36:44;;;;;;;;;;;;;;;10.76;100.00;99404.41;5028228;28;20039;-63
2022/03/14 04:39:09;;;;;;;;;;;;;;;10.94;100.00;99403.94;5025255;28;20464;-63
2022/03/14 04:41:37;;;;;;;;;;;;;;;10.46;100.00;99410.31;5025846;28;19921;-63
2022/03/14 04:44:03;;;;;;;;;;;;;;;11.01;100.00;99414.91;5026333;28;19964;-57
2022/03/14 04:46:28;;;;;;;;;;;;;;;11.05;100.00;99416.53;5026913;28;19964;-62
2022/03/14 04:48:54;;;;;;;;;;;;;;;10.64;100.00;99414.16;5026570;28;20335;-62
2022/03/14 04:51:20;;;;;;;;;;;;;;;11.40;100.00;99418.09;5008195;28;19917;-62
2022/03/14 04:53:45;;;;;;;;;;;;;;;11.24;100.00;99416.84;5027190;28;19956;-62
2022/03/14 04:56:12;;;;;;;;;;;;;;;11.38;100.00;99416.47;5026025;28;19975;-63
2022/03/14 04:58:37;;;;;;;;;;;;;;;10.89;100.00;99424.66;5025896;28;19913;-60
2022/03/14 05:01:02;;;;;;;;;;;;;;;10.87;100.00;99429.00;5010718;28;20402;-62
2022/03/14 05:03:28;;;;;;;;;;;;;;;11.05;100.00;99437.16;5025787;28;19924;-62
2022/03/14 05:05:53;;;;;;;;;;;;;;;10.62;100.00;99433.94;5026495;28;20456;-62
2022/03/14 05:08:19;;;;;;;;;;;;;;;11.20;100.00;99429.00;5026104;28;20003;-63
2022/03/14 05:10:44;;;;;;;;;;;;;;;10.49;100.00;99432.59;5008003;28;19928;-63
2022/03/14 05:13:09;;;;;;;;;;;;;;;10.58;100.00;99437.50;5026798;28;19974;-63
2022/03/14 05:15:35;;;;;;;;;;;;;;;10.58;100.00;99441.78;5024416;28;19960;-63
2022/03/14 05:18:01;;;;;;;;;;;;;;;10.83;100.00;99439.44;5026039;28;19976;-63
2022/03/14 05:20:26;;;;;;;;;;;;;;;10.78;100.00;99452.44;5023687;28;19925;-62
2022/03/14 05:22:53;;;;;;;;;;;;;;;11.59;100.00;99454.56;5024677;28;19921;-62
2022/03/14 05:25:22;;;;;;;;;;;;;;;11.24;100.00;99456.41;5025824;28;19921;-63
2022/03/14 05:27:48;;;;;;;;;;;;;;;11.60;100.00;99456.22;5026885;28;19967;-63
2022/03/14 05:30:13;;;;;;;;;;;;;;;11.57;100.00;99461.47;5025845;28;19960;-62
2022/03/14 05:32:40;;;;;;;;;;;;;;;11.12;100.00;99464.44;5024944;28;20319;-63
2022/03/14 05:35:06;;;;;;;;;;;;;;;11.34;100.00;99469.03;5024786;28;19925;-63
2022/03/14 05:37:32;;;;;;;;;;;;;;;11.04;100.00;99467.25;5021378;28;19929;-63
2022/03/14 05:39:58;;;;;;;;;;;;;;;11.17;100.00;99472.88;5025375;28;19917;-63
2022/03/14 05:42:24;;;;;;;;;;;;;;;11.51;100.00;99466.81;5022548;28;19913;-63
2022/03/14 05:44:49;;;;;;;;;;;;;;;10.82;100.00;99477.25;5025179;28;19924;-63
2022/03/14 05:47:14;;;;;;;;;;;;;;;12.00;100.00;99480.91;5023549;28;19920;-62
2022/03/14 05:49:40;;;;;;;;;;;;;;;11.87;100.00;99495.03;5024077;28;19921;-63
2022/03/14 05:52:07;;;;;;;;;;;;;;;11.72;100.00;99489.44;5008435;28;19921;-63
2022/03/14 05:54:34;;;;;;;;;;;;;;;11.90;100.00;99498.38;5023105;28;20011;-64
2022/03/14 05:56:59;;;;;;;;;;;;;;;11.88;100.00;99501.91;5004150;28;19925;-63
2022/03/14 05:59:25;;;;;;;;;;;;;;;12.14;100.00;99501.13;5023672;28;20375;-62
2022/03/14 06:01:50;;;;;;;;;;;;;;;12.21;100.00;99509.53;5025331;28;19932;-62
2022/03/14 06:04:16;;;;;;;;;;;;;;;12.05;100.00;99507.41;5024773;28;19921;-63
2022/03/14 06:06:41;;;;;;;;;;;;;;;11.46;100.00;99507.38;5025011;28;19913;-63
2022/03/14 06:09:07;;;;;;;;;;;;;;;11.72;100.00;99502.34;5026061;28;20079;-63
2022/03/14 06:11:32;;;;;;;;;;;;;;;12.00;100.00;99517.03;5025133;28;19916;-63
2022/03/14 06:13:58;;;;;;;;;;;;;;;12.01;100.00;99521.31;5025215;28;19921;-62
2022/03/14 06:16:24;;;;;;;;;;;;;;;10.81;100.00;99521.06;5024543;28;20142;-63
2022/03/14 06:18:50;;;;;;;;;;;;;;;11.14;100.00;99529.69;5023336;28;20713;-63
2022/03/14 06:21:16;;;;;;;;;;;;;;;10.70;100.00;99529.09;5023925;28;19920;-63
2022/03/14 06:23:41;;;;;;;;;;;;;;;10.52;100.00;99534.66;5023402;28;19917;-62
2022/03/14 06:26:06;;;;;;;;;;;;;;;10.19;100.00;99537.06;5025650;28;20401;-62
2022/03/14 06:28:32;;;;;;;;;;;;;;;10.85;100.00;99538.16;5025449;28;19924;-63
2022/03/14 06:30:57;;;;;;;;;;;;;;;10.70;100.00;99539.38;5025468;28;20428;-63
2022/03/14 06:33:22;;;;;;;;;;;;;;;11.43;100.00;99546.16;5023732;28;19928;-63
2022/03/14 06:35:48;;;;;;;;;;;;;;;11.48;100.00;99545.13;5025517;28;19921;-63
2022/03/14 06:38:13;;;;;;;;;;;;;;;11.64;100.00;99535.22;5023827;28;20008;-63
2022/03/14 06:40:39;;;;;;;;;;;;;;;11.83;100.00;99550.19;5023866;28;19917;-62
2022/03/14 06:43:05;;;;;;;;;;;;;;;11.00;100.00;99539.53;5025660;28;20363;-63
2022/03/14 06:45:30;;;;;;;;;;;;;;;10.59;100.00;99549.94;5025043;28;19952;-62
2022/03/14 06:47:56;;;;;;;;;;;;;;;11.23;100.00;99552.66;5023536;28;20438;-62
2022/03/14 06:50:21;;;;;;;;;;;;;;;10.78;100.00;99552.91;5023945;28;19917;-63
2022/03/14 06:52:47;;;;;;;;;;;;;;;11.07;100.00;99559.09;5024532;28;19937;-63
2022/03/14 06:55:13;;;;;;;;;;;;;;;11.27;100.00;99551.69;5025330;28;19927;-63
2022/03/14 06:57:38;;;;;;;;;;;;;;;11.59;100.00;99550.00;5025235;28;20390;-63
2022/03/14 07:00:04;;;;;;;;;;;;;;;10.71;100.00;99548.78;5024948;28;20379;-63
2022/03/14 07:02:29;;;;;;;;;;;;;;;11.40;100.00;99562.53;5023883;28;19925;-64
2022/03/14 07:04:54;;;;;;;;;;;;;;;12.04;100.00;99561.66;5024073;28;20355;-64
2022/03/14 07:07:20;;;;;;;;;;;;;;;11.32;100.00;99566.22;5024188;28;19947;-63
2022/03/14 07:09:45;;;;;;;;;;;;;;;11.42;100.00;99570.22;5024028;28;19921;-64
2022/03/14 07:12:11;;;;;;;;;;;;;;;11.46;100.00;99569.25;5023063;28;19960;-62
2022/03/14 07:14:36;;;;;;;;;;;;;;;11.36;100.00;99575.53;5004270;28;20429;-63
2022/03/14 07:17:02;;;;;;;;;;;;;;;11.66;100.00;99572.16;5023610;28;19917;-63
2022/03/14 07:19:27;;;;;;;;;;;;;;;11.40;100.00;99577.16;5022871;28;20489;-63
2022/03/14 07:21:52;;;;;;;;;;;;;;;11.49;100.00;99566.59;5023643;28;19967;-63
2022/03/14 07:24:18;;;;;;;;;;;;;;;11.17;100.00;99570.00;5023684;28;20461;-63
2022/03/14 07:26:43;;;;;;;;;;;;;;;11.23;100.00;99581.03;5023976;28;19926;-63
2022/03/14 07:29:09;;;;;;;;;;;;;;;11.22;100.00;99576.75;5024641;28;20402;-63
2022/03/14 07:31:37;;;;;;;;;;;;;;;10.87;100.00;99578.44;5024230;28;19989;-63
2022/03/14 07:34:02;;;;;;;;;;;;;;;11.11;100.00;99581.34;5023388;28;21008;-63
2022/03/14 07:36:27;;;;;;;;;;;;;;;11.37;100.00;99582.41;5022680;28;19996;-63
2022/03/14 07:38:55;;;;;;;;;;;;;;;11.45;100.00;99585.63;5022552;28;20158;-62
2022/03/14 07:41:20;;;;;;;;;;;;;;;11.49;100.00;99585.53;5023016;28;19921;-63
2022/03/14 07:43:46;;;;;;;;;;;;;;;10.80;100.00;99592.38;5023109;28;19931;-63
2022/03/14 07:46:11;;;;;;;;;;;;;;;11.45;100.00;99591.63;5023637;28;19932;-63
2022/03/14 07:48:36;;;;;;;;;;;;;;;11.30;100.00;99598.03;5022607;28;19991;-63
2022/03/14 07:51:03;;;;;;;;;;;;;;;11.80;100.00;99601.91;5024631;28;19928;-62
2022/03/14 07:53:29;;;;;;;;;;;;;;;12.05;100.00;99596.94;5021861;28;19925;-63
2022/03/14 07:55:54;;;;;;;;;;;;;;;11.72;100.00;99596.94;5023465;28;19952;-63
2022/03/14 07:58:19;;;;;;;;;;;;;;;12.13;100.00;99603.56;5024683;28;19924;-63
2022/03/14 08:00:45;;;;;;;;;;;;;;;11.59;100.00;99609.31;5024797;28;20000;-62
2022/03/14 08:03:10;;;;;;;;;;;;;;;12.13;100.00;99606.16;5024158;28;19924;-62
2022/03/14 08:05:35;;;;;;;;;;;;;;;11.70;100.00;99601.31;5023244;28;19917;-62
2022/03/14 08:08:05;;;;;;;;;;;;;;;11.72;100.00;99602.09;5023128;28;20574;-61
2022/03/14 08:10:30;;;;;;;;;;;;;;;11.69;100.00;99595.28;5022255;28;20445;-61
2022/03/14 08:12:56;;;;;;;;;;;;;;;11.63;100.00;99604.91;5024711;28;19968;-62
2022/03/14 08:15:25;;;;;;;;;;;;;;;11.64;100.00;99611.78;5027225;28;19917;-63
2022/03/14 08:17:52;;;;;;;;;;;;;;;11.10;100.00;99618.28;5025674;28;20378;-62
2022/03/14 08:20:17;;;;;;;;;;;;;;;11.66;100.00;99617.75;5027531;28;20358;-62
2022/03/14 08:22:43;;;;;;;;;;;;;;;11.94;100.00;99620.47;5027712;28;19971;-62
2022/03/14 08:25:09;;;;;;;;;;;;;;;11.94;100.00;99625.63;5025594;28;19940;-62
2022/03/14 08:27:34;;;;;;;;;;;;;;;12.35;100.00;99621.84;5027981;28;19921;-63
2022/03/14 08:30:00;;;;;;;;;;;;;;;12.00;100.00;99625.47;5027664;28;19913;-63
2022/03/14 08:32:25;;;;;;;;;;;;;;;11.81;100.00;99629.38;5027536;28;20027;-63
2022/03/14 08:34:54;;;;;;;;;;;;;;;12.49;100.00;99634.38;5027009;28;19967;-63
2022/03/14 08:37:20;;;;;;;;;;;;;;;11.63;100.00;99639.31;5027360;28;20525;-63
2022/03/14 08:39:48;;;;;;;;;;;;;;;12.29;100.00;99631.50;5025926;28;20012;-63
2022/03/14 08:42:13;;;;;;;;;;;;;;;12.47;100.00;99654.22;5026080;28;19967;-62
2022/03/14 08:44:39;;;;;;;;;;;;;;;11.98;100.00;99647.88;5026763;28;19917;-63
2022/03/14 08:47:04;;;;;;;;;;;;;;;12.48;100.00;99658.53;5026430;28;20379;-63
2022/03/14 08:49:30;;;;;;;;;;;;;;;12.24;100.00;99659.22;5025863;28;19929;-63
2022/03/14 08:51:55;;;;;;;;;;;;;;;10.93;100.00;99666.84;5026032;28;19941;-62
2022/03/14 08:54:20;;;;;;;;;;;;;;;11.43;100.00;99672.53;5028142;28;20386;-62
2022/03/14 08:56:45;;;;;;;;;;;;;;;11.14;100.00;99671.47;5025808;28;19971;-63
2022/03/14 08:59:12;;;;;;;;;;;;;;;11.20;100.00;99679.06;5026619;28;20039;-63
2022/03/14 09:01:38;;;;;;;;;;;;;;;10.99;100.00;99674.41;5027144;28;19917;-62
2022/03/14 09:04:04;;;;;;;;;;;;;;;11.01;100.00;99680.38;5027567;28;19950;-62
2022/03/14 09:06:29;;;;;;;;;;;;;;;10.81;100.00;99684.25;5026918;28;20382;-62
2022/03/14 09:08:55;;;;;;;;;;;;;;;10.46;100.00;99680.69;5026543;28;19914;-62
2022/03/14 09:11:20;;;;;;;;;;;;;;;10.69;100.00;99694.81;5026306;28;20481;-63
2022/03/14 09:13:46;;;;;;;;;;;;;;;10.50;100.00;99696.09;5027211;28;19932;-62
2022/03/14 09:16:11;;;;;;;;;;;;;;;10.68;100.00;99701.69;5025710;28;19920;-62
2022/03/14 09:18:37;;;;;;;;;;;;;;;10.81;100.00;99696.28;5024913;28;19917;-63
2022/03/14 09:21:02;;;;;;;;;;;;;;;10.77;100.00;99712.69;5025704;28;19927;-62
2022/03/14 09:23:27;;;;;;;;;;;;;;;11.88;100.00;99719.56;5026217;28;20427;-62
2022/03/14 09:25:55;;;;;;;;;;;;;;;11.54;100.00;99709.22;5026558;28;19936;-63
2022/03/14 09:28:20;;;;;;;;;;;;;;;11.30;100.00;99716.63;5027384;28;19924;-63
2022/03/14 09:30:46;;;;;;;;;;;;;;;11.78;100.00;99722.38;5026221;28;19920;-62
2022/03/14 09:33:11;;;;;;;;;;;;;;;11.30;100.00;99720.94;5025813;28;20371;-62
2022/03/14 09:35:36;;;;;;;;;;;;;;;11.37;100.00;99721.66;5027585;28;19928;-62
2022/03/14 09:38:01;;;;;;;;;;;;;;;11.05;100.00;99710.34;5026702;28;19924;-63
2022/03/14 09:40:27;;;;;;;;;;;;;;;10.42;100.00;99715.13;5026986;28;19929;-63
2022/03/14 09:42:53;;;;;;;;;;;;;;;10.46;100.00;99727.03;5027202;28;19921;-62
2022/03/14 09:45:19;;;;;;;;;;;;;;;10.89;100.00;99728.72;5026003;28;19921;-63
2022/03/14 09:57:22;;;;;;;;;;;;;;;11.28;96.03;99806.06;5095655;27;19984;-78
2022/03/14 09:59:48;;;;;;;;;;;;;;;11.01;100.00;99817.81;5102500;28;19919;-80
2022/03/14 10:02:14;;;;;;;;;;;;;;;11.88;100.00;99829.69;5122515;27;19925;-79
2022/03/14 10:04:39;;;;;;;;;;;;;;;11.48;100.00;99838.31;5070429;28;19943;-80
2022/03/14 10:07:05;;;;;;;;;;;;;;;11.25;100.00;99836.25;5081159;28;19924;-79
2022/03/14 10:09:31;;;;;;;;;;;;;;;11.70;100.00;99842.13;5080652;28;19919;-79
2022/03/14 10:11:56;;;;;;;;;;;;;;;11.20;100.00;99851.81;5079436;28;20631;-80
2022/03/14 10:14:22;;;;;;;;;;;;;;;10.63;100.00;99846.94;5082343;28;19934;-79
2022/03/14 10:16:47;;;;;;;;;;;;;;;10.86;100.00;99852.50;5084363;28;19962;-79
2022/03/14 10:19:14;;;;;;;;;;;;;;;11.72;100.00;99858.41;5078981;28;19924;-81
2022/03/14 10:21:44;;;;;;;;;;;;;;;11.15;100.00;99857.94;5078520;28;19920;-80
2022/03/14 10:24:10;;;;;;;;;;;;;;;11.67;100.00;99865.38;5079595;28;19917;-79
2022/03/14 10:26:37;;;;;;;;;;;;;;;11.39;100.00;99865.16;5080436;28;19912;-77
2022/03/14 10:29:12;;;;;;;;;;;;;;;12.24;100.00;99870.97;5083364;28;20294;-80
2022/03/14 10:31:42;;;;;;;;;;;;;;;11.71;100.00;99872.19;5072727;28;19923;-79
2022/03/14 10:34:15;;;;;;;;;;;;;;;11.19;100.00;99875.88;5086771;28;19919;-79
2022/03/14 10:36:42;;;;;;;;;;;;;;;11.27;100.00;99879.16;5087768;28;19955;-78
2022/03/14 10:39:14;;;;;;;;;;;;;;;11.55;100.00;99876.00;5084791;28;20594;-79
2022/03/14 10:41:40;;;;;;;;;;;;;;;12.10;100.00;99885.06;5089495;28;19978;-79
2022/03/14 10:44:05;;;;;;;;;;;;;;;11.18;100.00;99897.41;5080081;28;19920;-78
2022/03/14 10:46:31;;;;;;;;;;;;;;;12.05;100.00;99883.50;5084092;28;20015;-79
2022/03/14 10:48:56;;;;;;;;;;;;;;;11.10;100.00;99891.53;5086740;28;19948;-79
2022/03/14 10:51:22;;;;;;;;;;;;;;;10.88;100.00;99896.28;5086430;28;19928;-79
2022/03/14 10:53:48;;;;;;;;;;;;;;;11.71;100.00;99894.56;5084547;28;19912;-77
2022/03/14 10:56:14;;;;;;;;;;;;;;;11.08;100.00;99908.75;5080481;28;20313;-78
2022/03/14 10:58:39;;;;;;;;;;;;;;;11.62;100.00;99903.34;5072122;28;19916;-79
2022/03/14 11:01:10;;;;;;;;;;;;;;;11.27;100.00;99909.25;5083458;28;19938;-80
2022/03/14 11:03:37;;;;;;;;;;;;;;;11.23;100.00;99908.47;5081111;28;19912;-78
2022/03/14 11:06:03;;;;;;;;;;;;;;;11.06;100.00;99908.81;5086090;28;20485;-78
2022/03/14 11:08:30;;;;;;;;;;;;;;;11.10;100.00;99914.72;5069499;28;19927;-79
2022/03/14 11:10:55;;;;;;;;;;;;;;;11.04;100.00;99917.44;5060699;28;20290;-79
2022/03/14 11:13:21;;;;;;;;;;;;;;;11.68;100.00;99923.88;5079934;28;19917;-78
2022/03/14 11:15:46;;;;;;;;;;;;;;;11.27;100.00;99912.69;5074742;28;19924;-78
2022/03/14 11:18:11;;;;;;;;;;;;;;;11.56;100.00;99908.63;5073266;28;19924;-78
2022/03/14 11:20:37;;;;;;;;;;;;;;;12.27;100.00;99917.38;5070274;28;19917;-77
2022/03/14 11:23:03;;;;;;;;;;;;;;;11.12;100.00;99918.13;5064853;28;19916;-76
2022/03/14 11:25:29;;;;;;;;;;;;;;;11.30;100.00;99922.94;5071938;28;19919;-79
2022/03/14 11:27:54;;;;;;;;;;;;;;;10.88;100.00;99917.72;5072135;28;19979;-79
2022/03/14 11:30:19;;;;;;;;;;;;;;;11.09;100.00;99918.22;5074447;28;19913;-78
2022/03/14 11:32:45;;;;;;;;;;;;;;;11.31;100.00;99918.59;5074840;28;19995;-78
2022/03/14 11:35:10;;;;;;;;;;;;;;;11.13;100.00;99914.69;5074246;28;19924;-76
2022/03/14 11:37:36;;;;;;;;;;;;;;;11.22;100.00;99908.47;5071152;28;19916;-79
2022/03/14 11:40:02;;;;;;;;;;;;;;;11.95;100.00;99920.72;5075025;28;19923;-77
2022/03/14 11:42:28;;;;;;;;;;;;;;;11.27;100.00;99923.00;5072553;28;19916;-79
2022/03/14 11:44:53;;;;;;;;;;;;;;;11.63;100.00;99914.50;5073672;28;19916;-78
2022/03/14 11:47:19;;;;;;;;;;;;;;;11.52;100.00;99919.91;5071366;28;19928;-78
2022/03/14 11:49:45;;;;;;;;;;;;;;;10.94;100.00;99918.50;5070061;28;19952;-77
2022/03/14 11:52:20;;;;;;;;;;;;;;;11.12;100.00;99922.44;5075260;28;20464;-79
2022/03/14 11:54:48;;;;;;;;;;;;;;;11.58;100.00;99922.34;5075078;28;19924;-78
2022/03/14 11:57:14;;;;;;;;;;;;;;;11.82;100.00;99925.31;5073111;28;19924;-76
2022/03/14 11:59:39;;;;;;;;;;;;;;;11.92;100.00;99919.06;5070587;28;19917;-78
2022/03/14 12:02:05;;;;;;;;;;;;;;;11.37;100.00;99921.06;5074832;28;20146;-78
2022/03/14 12:04:33;;;;;;;;;;;;;;;11.90;100.00;99924.25;5072174;28;19998;-79
2022/03/14 12:06:59;;;;;;;;;;;;;;;11.76;100.00;99917.69;5070923;28;20669;-78
2022/03/14 12:09:24;;;;;;;;;;;;;;;12.08;100.00;99917.81;5071276;28;19920;-77
2022/03/14 12:11:53;;;;;;;;;;;;;;;11.82;100.00;99914.97;5070066;28;19916;-79
2022/03/14 12:14:34;;;;;;;;;;;;;;;12.27;100.00;99913.09;5072247;28;19916;-79
2022/03/14 12:17:15;;;;;;;;;;;;;;;13.15;100.00;99918.56;5072242;28;19972;-78
2022/03/14 12:19:42;;;;;;;;;;;;;;;12.28;100.00;99914.78;5066563;28;19954;-79
2022/03/14 12:22:12;;;;;;;;;;;;;;;13.00;100.00;99917.25;5067878;28;20421;-79
2022/03/14 12:24:38;;;;;;;;;;;;;;;12.94;100.00;99909.66;5069787;28;19912;-78
2022/03/14 12:27:22;;;;;;;;;;;;;;;12.98;100.00;99912.13;5070221;28;19951;-77
2022/03/14 12:29:48;;;;;;;;;;;;;;;13.05;100.00;99917.13;5064383;28;19991;-79
2022/03/14 12:32:48;;;;;;;;;;;;;;;12.45;100.00;99916.09;5057816;28;20373;-80
2022/03/14 12:35:22;;;;;;;;;;;;;;;12.29;100.00;99915.59;5040981;28;19932;-77
2022/03/14 12:37:47;;;;;;;;;;;;;;;11.73;100.00;99916.88;5034742;28;19913;-80
2022/03/14 12:40:18;;;;;;;;;;;;;;;11.97;100.00;99912.06;5036152;28;19920;-78
2022/03/14 12:42:45;;;;;;;;;;;;;;;12.86;100.00;99916.75;5037065;28;20026;-77
2022/03/14 12:45:14;;;;;;;;;;;;;;;12.95;100.00;99921.69;5021398;28;20464;-79